Time;durP1;ratioP1;P1;durP2;ratioP2;P2;SDS_P1;SDS_P2;PMS_P1;PMS_P2;Temp;Humidity;BMP_temperature;BMP_pressure;BME280_temperature;BME280_humidity;BME280_pressure;Samples;Min_cycle;Max_cycle;Signal;HPM_P1;HPM_P2
2023/01/18 00:00:36;;;;;;;12.97;8.77;;;;;;;-3.17;100.00;98960.16;5048507;28;20016;-64
2023/01/18 00:03:02;;;;;;;12.87;8.57;;;;;;;-3.18;100.00;98968.53;5049267;28;20027;-64
2023/01/18 00:05:27;;;;;;;11.37;7.83;;;;;;;-3.19;100.00;98969.31;5049371;28;20377;-64
2023/01/18 00:07:53;;;;;;;12.00;7.93;;;;;;;-3.19;100.00;98971.88;5051081;28;20029;-64
2023/01/18 00:10:18;;;;;;;12.53;8.60;;;;;;;-3.22;100.00;98964.06;5050146;28;20043;-64
2023/01/18 00:12:44;;;;;;;13.20;8.43;;;;;;;-3.21;100.00;98964.94;5048705;28;20459;-63
2023/01/18 00:15:10;;;;;;;15.60;8.40;;;;;;;-3.24;100.00;98968.19;5047615;28;20116;-65
2023/01/18 00:17:46;;;;;;;12.37;8.47;;;;;;;-3.23;100.00;98964.88;5055086;28;20033;-64
2023/01/18 00:20:15;;;;;;;11.50;7.83;;;;;;;-3.23;100.00;98969.94;5060308;28;20343;-64
2023/01/18 00:22:41;;;;;;;13.07;8.77;;;;;;;-3.25;100.00;98968.97;5047040;28;20036;-64
2023/01/18 00:25:09;;;;;;;9.17;7.73;;;;;;;-3.23;100.00;98969.94;5048774;28;20458;-64
2023/01/18 00:27:37;;;;;;;11.00;8.57;;;;;;;-3.26;100.00;98969.75;5049757;28;20373;-64
2023/01/18 00:30:07;;;;;;;13.17;8.87;;;;;;;-3.27;100.00;98973.06;5048858;28;20075;-64
2023/01/18 00:32:33;;;;;;;16.73;9.00;;;;;;;-3.28;100.00;98973.84;5046832;28;20078;-64
2023/01/18 00:34:59;;;;;;;11.73;8.83;;;;;;;-3.29;100.00;98975.50;5048711;28;20024;-64
2023/01/18 00:37:25;;;;;;;12.27;8.70;;;;;;;-3.30;100.00;98975.44;5047958;28;20032;-64
2023/01/18 00:39:50;;;;;;;13.47;9.03;;;;;;;-3.32;100.00;98975.34;5047577;28;20386;-65
2023/01/18 00:44:59;;;;;;;13.33;8.27;;;;;;;-3.32;100.00;98974.47;5053630;28;20048;-64
2023/01/18 00:47:25;;;;;;;9.53;8.03;;;;;;;-3.34;100.00;98986.16;5056955;28;20037;-64
2023/01/18 00:49:51;;;;;;;12.17;9.40;;;;;;;-3.35;100.00;98984.44;5047348;28;20316;-64
2023/01/18 00:52:16;;;;;;;11.90;8.57;;;;;;;-3.36;100.00;98990.28;5047310;28;20332;-64
2023/01/18 00:54:41;;;;;;;11.53;8.43;;;;;;;-3.38;100.00;98986.00;5048298;28;20524;-64
2023/01/18 00:57:07;;;;;;;13.27;8.73;;;;;;;-3.36;100.00;98986.06;5047955;28;20082;-64
2023/01/18 00:59:32;;;;;;;10.70;7.63;;;;;;;-3.36;100.00;98997.88;5048712;28;20433;-64
2023/01/18 01:01:57;;;;;;;11.13;8.40;;;;;;;-3.36;100.00;98992.81;5046718;28;20033;-64
2023/01/18 01:07:06;;;;;;;11.23;7.57;;;;;;;-3.38;100.00;98986.00;5047502;28;20048;-64
2023/01/18 01:09:31;;;;;;;10.50;7.60;;;;;;;-3.38;100.00;98996.13;5047036;28;20016;-64
2023/01/18 01:26:05;;;;;;;12.40;7.30;;;;;;;-3.39;100.00;99004.53;5046428;28;20043;-64
2023/01/18 01:28:30;;;;;;;12.98;7.82;;;;;;;-3.40;100.00;99001.91;5046811;28;20037;-64
2023/01/18 01:31:00;;;;;;;10.60;7.43;;;;;;;-3.42;100.00;99001.78;5047399;28;20417;-64
2023/01/18 01:33:26;;;;;;;10.73;8.20;;;;;;;-3.42;100.00;99004.31;5047923;28;20032;-64
2023/01/18 01:36:00;;;;;;;11.43;7.27;;;;;;;-3.40;100.00;99006.97;5046991;28;20025;-64
2023/01/18 01:38:26;;;;;;;13.77;7.03;;;;;;;-3.40;100.00;99017.09;5047513;28;20021;-64
2023/01/18 01:41:06;;;;;;;9.90;6.97;;;;;;;-3.40;100.00;99012.88;5046652;28;20035;-64
2023/01/18 01:43:39;;;;;;;10.05;7.60;;;;;;;-3.42;100.00;99016.97;5046180;28;20143;-64
2023/01/18 01:46:27;;;;;;;11.93;8.10;;;;;;;-3.40;100.00;99024.72;5046779;28;20037;-64
2023/01/18 01:49:03;;;;;;;10.10;7.23;;;;;;;-3.41;100.00;99023.81;5047013;28;20041;-64
2023/01/18 01:51:31;;;;;;;12.20;8.17;;;;;;;-3.39;100.00;99024.78;5046134;28;20091;-64
2023/01/18 01:54:01;;;;;;;11.97;8.23;;;;;;;-3.40;100.00;99033.16;5045762;28;20250;-64
2023/01/18 01:56:28;;;;;;;13.63;8.73;;;;;;;-3.42;100.00;99028.81;5046426;28;20534;-64
2023/01/18 01:58:57;;;;;;;12.00;8.10;;;;;;;-3.44;100.00;99030.38;5046314;28;20028;-64
2023/01/18 02:01:23;;;;;;;10.77;6.97;;;;;;;-3.44;100.00;99028.72;5049578;28;20021;-64
2023/01/18 02:03:49;;;;;;;13.67;7.50;;;;;;;-3.45;100.00;99029.47;5054887;28;20025;-64
2023/01/18 02:06:29;;;;;;;13.30;6.93;;;;;;;-3.49;100.00;99032.63;5047575;28;20024;-64
2023/01/18 02:08:55;;;;;;;9.63;7.15;;;;;;;-3.49;100.00;99037.69;5046708;28;20024;-65
2023/01/18 02:11:20;;;;;;;9.03;6.53;;;;;;;-3.52;100.00;99022.31;5046542;28;20029;-65
2023/01/18 02:13:46;;;;;;;10.27;6.87;;;;;;;-3.52;100.00;99027.38;5044752;28;20028;-65
2023/01/18 02:16:31;;;;;;;8.40;6.83;;;;;;;-3.55;100.00;99017.94;5046554;28;20093;-65
2023/01/18 02:19:02;;;;;;;10.53;7.83;;;;;;;-3.56;100.00;99026.31;5051104;28;20075;-64
2023/01/18 02:21:56;;;;;;;12.13;7.40;;;;;;;-3.54;100.00;99018.78;5045748;28;20091;-65
2023/01/18 02:24:31;;;;;;;13.23;6.50;;;;;;;-3.54;100.00;99018.78;5052869;28;20135;-65
2023/01/18 02:27:00;;;;;;;9.17;7.00;;;;;;;-3.54;100.00;99023.88;5046836;28;20302;-65
2023/01/18 02:29:47;;;;;;;8.20;7.30;;;;;;;-3.55;100.00;99027.19;5051255;28;20107;-64
2023/01/18 02:32:28;;;;;;;10.00;6.73;;;;;;;-3.58;100.00;99032.09;5045947;28;20029;-65
2023/01/18 02:35:10;;;;;;;9.68;6.93;;;;;;;-3.58;100.00;99039.69;5046460;28;20032;-65
2023/01/18 02:37:59;;;;;;;9.93;6.73;;;;;;;-3.59;100.00;99041.34;5047020;28;20055;-64
2023/01/18 02:40:52;;;;;;;11.23;7.03;;;;;;;-3.60;100.00;99044.66;5057796;28;20115;-65
2023/01/18 02:48:51;;;;;;;10.30;6.40;;;;;;;-3.63;100.00;99049.50;5045668;28;20568;-65
2023/01/18 02:51:17;;;;;;;10.07;6.97;;;;;;;-3.63;100.00;99050.41;5047300;28;20061;-65
2023/01/18 02:53:44;;;;;;;11.73;7.97;;;;;;;-3.64;100.00;99047.78;5049041;28;20021;-65
2023/01/18 02:56:26;;;;;;;9.67;7.07;;;;;;;-3.65;100.00;99049.44;5049306;28;20087;-64
2023/01/18 02:59:01;;;;;;;11.00;7.33;;;;;;;-3.64;100.00;99051.19;5052043;28;20040;-64
2023/01/18 03:01:34;;;;;;;9.33;7.43;;;;;;;-3.64;100.00;99050.31;5053499;28;20035;-64
2023/01/18 03:04:07;;;;;;;12.80;7.23;;;;;;;-3.65;100.00;99051.97;5054356;28;20499;-64
2023/01/18 03:06:33;;;;;;;10.00;6.70;;;;;;;-3.66;100.00;99059.47;5048897;28;20037;-64
2023/01/18 03:08:59;;;;;;;10.37;7.47;;;;;;;-3.67;100.00;99058.59;5049799;28;20024;-64
2023/01/18 03:11:41;;;;;;;9.40;7.20;;;;;;;-3.67;100.00;99058.59;5050121;28;20028;-64
2023/01/18 03:14:42;;;;;;;10.50;7.07;;;;;;;-3.69;100.00;99052.59;5049659;28;20032;-64
2023/01/18 03:17:13;;;;;;;9.57;6.90;;;;;;;-3.70;100.00;99048.28;5055228;28;20493;-63
2023/01/18 03:20:07;;;;;;;11.65;7.90;;;;;;;-3.72;100.00;99043.94;5057324;28;20033;-64
2023/01/18 03:25:31;;;;;;;10.70;6.97;;;;;;;-3.75;100.00;99049.66;5053543;28;20397;-64
2023/01/18 03:33:45;;;;;;;10.20;7.67;;;;;;;-3.81;100.00;99059.44;5049179;28;20044;-64
2023/01/18 03:36:36;;;;;;;10.33;7.47;;;;;;;-3.82;100.00;99058.56;5050235;28;20083;-64
2023/01/18 03:39:09;;;;;;;9.53;8.00;;;;;;;-3.81;100.00;99059.44;5049618;28;20420;-64
2023/01/18 03:41:38;;;;;;;10.20;7.30;;;;;;;-3.83;100.00;99073.66;5047334;28;20021;-63
2023/01/18 03:44:12;;;;;;;10.77;7.40;;;;;;;-3.84;100.00;99069.34;5049406;28;20056;-63
2023/01/18 03:46:39;;;;;;;12.70;8.57;;;;;;;-3.84;100.00;99069.34;5049666;28;20040;-63
2023/01/18 03:49:06;;;;;;;13.70;8.13;;;;;;;-3.84;100.00;99072.75;5048859;28;20066;-63
2023/01/18 03:51:46;;;;;;;12.63;8.47;;;;;;;-3.84;100.00;99076.94;5048697;28;20569;-63
2023/01/18 03:54:18;;;;;;;14.63;8.30;;;;;;;-3.83;100.00;99076.19;5054387;28;20040;-63
2023/01/18 03:56:53;;;;;;;12.10;8.80;;;;;;;-3.85;100.00;99083.69;5049297;28;20036;-63
2023/01/18 03:59:19;;;;;;;10.50;7.77;;;;;;;-3.86;100.00;99087.88;5053382;28;20108;-63
2023/01/18 04:01:46;;;;;;;10.70;8.27;;;;;;;-3.83;100.00;99093.91;5051089;28;20017;-63
2023/01/18 04:04:12;;;;;;;16.70;9.40;;;;;;;-3.84;100.00;99099.72;5048681;28;20103;-65
2023/01/18 04:06:37;;;;;;;15.77;9.33;;;;;;;-3.82;100.00;99108.31;5048424;28;20043;-63
2023/01/18 04:09:03;;;;;;;10.27;8.30;;;;;;;-3.81;100.00;99099.94;5048781;28;20132;-63
2023/01/18 04:11:28;;;;;;;11.70;8.93;;;;;;;-3.80;100.00;99106.75;5049073;28;20527;-64
2023/01/18 04:13:53;;;;;;;14.43;8.80;;;;;;;-3.80;100.00;99110.16;5055067;28;20036;-63
2023/01/18 04:16:19;;;;;;;12.90;8.70;;;;;;;-3.78;100.00;99110.25;5053263;28;20028;-63
2023/01/18 04:18:44;;;;;;;13.20;9.07;;;;;;;-3.78;100.00;99105.19;5055810;28;20392;-64
2023/01/18 04:21:09;;;;;;;13.47;9.40;;;;;;;-3.77;100.00;99112.88;5055084;28;20028;-64
2023/01/18 04:23:35;;;;;;;13.33;9.30;;;;;;;-3.75;100.00;99112.97;5049043;28;20259;-65
2023/01/18 04:26:01;;;;;;;10.67;8.40;;;;;;;-3.76;100.00;99111.22;5047632;28;20025;-65
2023/01/18 04:28:26;;;;;;;13.73;8.63;;;;;;;-3.77;100.00;99112.88;5047671;28;20052;-65
2023/01/18 04:30:53;;;;;;;11.93;8.10;;;;;;;-3.76;100.00;99117.16;5048464;28;20116;-65
2023/01/18 04:33:19;;;;;;;15.07;9.20;;;;;;;-3.76;100.00;99113.75;5048224;28;20029;-64
2023/01/18 04:35:48;;;;;;;9.67;8.57;;;;;;;-3.76;100.00;99108.69;5047988;28;20051;-64
2023/01/18 04:38:14;;;;;;;11.67;9.47;;;;;;;-3.76;100.00;99113.75;5047492;28;20029;-64
2023/01/18 04:40:40;;;;;;;12.07;8.93;;;;;;;-3.77;100.00;99120.47;5047558;28;20033;-64
2023/01/18 04:43:05;;;;;;;14.87;8.13;;;;;;;-3.76;100.00;99109.53;5047579;28;20017;-64
2023/01/18 04:45:30;;;;;;;10.80;8.37;;;;;;;-3.77;100.00;99120.47;5045777;28;20021;-64
2023/01/18 04:47:56;;;;;;;14.17;9.03;;;;;;;-3.75;100.00;99116.38;5049053;28;20017;-64
2023/01/18 04:50:22;;;;;;;14.97;9.10;;;;;;;-3.76;100.00;99119.69;5051541;28;20047;-64
2023/01/18 04:52:47;;;;;;;13.23;8.57;;;;;;;-3.75;100.00;99123.09;5049167;28;20047;-64
2023/01/18 04:55:14;;;;;;;15.23;9.60;;;;;;;-3.72;100.00;99125.81;5048072;28;20573;-65
2023/01/18 04:57:40;;;;;;;11.77;9.50;;;;;;;-3.71;100.00;99125.03;5047779;28;20055;-64
2023/01/18 05:00:07;;;;;;;13.00;8.77;;;;;;;-3.70;100.00;99124.25;5047883;28;20020;-64
2023/01/18 05:02:32;;;;;;;14.03;10.13;;;;;;;-3.69;100.00;99127.66;5048416;28;20079;-64
2023/01/18 05:04:58;;;;;;;16.97;10.37;;;;;;;-3.69;100.00;99136.16;5047550;28;20473;-64
2023/01/18 05:07:24;;;;;;;12.50;9.20;;;;;;;-3.65;100.00;99143.13;5047965;28;20043;-65
2023/01/18 05:09:49;;;;;;;15.03;9.27;;;;;;;-3.64;100.00;99144.91;5048321;28;20028;-64
2023/01/18 05:12:14;;;;;;;13.90;8.93;;;;;;;-3.65;100.00;99149.88;5047053;28;20438;-64
2023/01/18 05:14:40;;;;;;;14.17;9.60;;;;;;;-3.67;100.00;99149.75;5047369;28;20025;-64
2023/01/18 05:17:06;;;;;;;15.83;9.57;;;;;;;-3.68;100.00;99152.19;5048958;28;20043;-64
2023/01/18 05:19:31;;;;;;;16.43;9.83;;;;;;;-3.70;100.00;99147.03;5047497;28;20355;-64
2023/01/18 05:21:56;;;;;;;13.77;9.27;;;;;;;-3.69;100.00;99153.88;5047327;28;20021;-64
2023/01/18 05:24:22;;;;;;;12.27;9.50;;;;;;;-3.68;100.00;99157.25;5047048;28;20029;-64
2023/01/18 05:26:47;;;;;;;13.83;10.03;;;;;;;-3.69;100.00;99161.47;5048333;28;20104;-65
2023/01/18 05:29:12;;;;;;;12.83;10.33;;;;;;;-3.70;100.00;99149.56;5045627;28;20511;-64
2023/01/18 05:31:38;;;;;;;11.63;8.97;;;;;;;-3.72;100.00;99165.47;5056435;28;20036;-64
2023/01/18 05:34:03;;;;;;;14.27;9.63;;;;;;;-3.71;100.00;99168.09;5056447;28;20111;-64
2023/01/18 05:36:28;;;;;;;15.03;10.17;;;;;;;-3.72;100.00;99156.19;5053862;28;20344;-64
2023/01/18 05:38:54;;;;;;;14.07;9.87;;;;;;;-3.74;100.00;99168.75;5045112;28;20029;-64
2023/01/18 05:41:20;;;;;;;17.53;11.23;;;;;;;-3.74;100.00;99172.94;5051003;28;20025;-64
2023/01/18 05:43:45;;;;;;;16.03;10.00;;;;;;;-3.74;100.00;99171.28;5046366;28;20067;-64
2023/01/18 05:46:10;;;;;;;12.57;9.90;;;;;;;-3.74;100.00;99172.94;5044838;28;20509;-64
2023/01/18 05:48:36;;;;;;;15.97;10.13;;;;;;;-3.75;100.00;99168.66;5045864;28;20662;-64
2023/01/18 05:51:06;;;;;;;15.07;10.50;;;;;;;-3.75;100.00;99181.34;5046156;28;20047;-64
2023/01/18 05:53:31;;;;;;;16.17;10.85;;;;;;;-3.75;100.00;99172.09;5053310;28;20036;-64
2023/01/18 05:56:00;;;;;;;16.23;11.43;;;;;;;-3.71;100.00;99180.75;5054466;28;20501;-64
2023/01/18 05:58:26;;;;;;;16.73;10.97;;;;;;;-3.70;100.00;99185.03;5051281;28;20029;-64
2023/01/18 06:00:51;;;;;;;17.53;11.07;;;;;;;-3.68;100.00;99192.72;5046872;28;20060;-64
2023/01/18 06:03:17;;;;;;;16.07;11.63;;;;;;;-3.70;100.00;99195.16;5047167;28;20123;-64
2023/01/18 06:05:42;;;;;;;15.37;10.87;;;;;;;-3.70;100.00;99197.69;5054513;28;20027;-64
2023/01/18 06:08:07;;;;;;;16.17;11.03;;;;;;;-3.71;100.00;99197.59;5052615;28;20020;-64
2023/01/18 06:10:33;;;;;;;17.67;11.70;;;;;;;-3.73;100.00;99192.44;5047286;28;20044;-64
2023/01/18 06:12:58;;;;;;;15.83;11.33;;;;;;;-3.74;100.00;99194.09;5046928;28;20412;-65
2023/01/18 06:15:23;;;;;;;20.87;14.43;;;;;;;-3.76;100.00;99200.72;5052600;28;20033;-65
2023/01/18 06:17:48;;;;;;;15.33;11.20;;;;;;;-3.78;100.00;99211.53;5046483;28;20469;-65
2023/01/18 06:20:14;;;;;;;15.50;12.13;;;;;;;-3.82;100.00;99214.63;5046234;28;20032;-65
2023/01/18 06:22:40;;;;;;;19.03;11.53;;;;;;;-3.84;100.00;99216.19;5052911;28;20024;-64
2023/01/18 06:25:07;;;;;;;18.77;11.63;;;;;;;-3.85;100.00;99220.41;5046575;28;20082;-64
2023/01/18 06:27:32;;;;;;;14.43;12.23;;;;;;;-3.84;100.00;99226.31;5047476;28;20031;-64
2023/01/18 06:29:57;;;;;;;17.67;12.10;;;;;;;-3.86;100.00;99223.69;5052376;28;20303;-64
2023/01/18 06:32:23;;;;;;;14.27;11.03;;;;;;;-3.86;100.00;99232.19;5055391;28;20396;-64
2023/01/18 06:34:48;;;;;;;14.83;11.30;;;;;;;-3.84;100.00;99226.31;5050656;28;20099;-64
2023/01/18 06:37:13;;;;;;;15.23;12.07;;;;;;;-3.87;100.00;99232.94;5052387;28;20063;-64
2023/01/18 06:39:39;;;;;;;15.13;13.20;;;;;;;-3.86;100.00;99233.81;5049793;28;20393;-64
2023/01/18 06:42:05;;;;;;;17.17;12.80;;;;;;;-3.90;100.00;99240.34;5053322;28;20160;-64
2023/01/18 06:44:30;;;;;;;16.27;11.97;;;;;;;-3.90;100.00;99242.88;5053029;28;20100;-64
2023/01/18 06:46:56;;;;;;;19.63;13.20;;;;;;;-3.93;100.00;99242.69;5057868;28;20460;-64
2023/01/18 06:49:21;;;;;;;16.07;11.27;;;;;;;-3.92;100.00;99252.00;5055410;28;20027;-64
2023/01/18 06:51:46;;;;;;;20.37;13.10;;;;;;;-3.94;100.00;99256.09;5059126;28;20464;-64
2023/01/18 06:54:14;;;;;;;17.40;11.60;;;;;;;-3.93;100.00;99257.88;5063821;28;20029;-64
2023/01/18 06:56:39;;;;;;;14.43;10.87;;;;;;;-3.92;100.00;99259.59;5050576;28;20369;-64
2023/01/18 06:59:05;;;;;;;21.33;12.57;;;;;;;-3.93;100.00;99257.88;5047747;28;20049;-64
2023/01/18 07:01:30;;;;;;;19.80;12.70;;;;;;;-3.92;100.00;99264.69;5048229;28;20082;-64
2023/01/18 07:03:55;;;;;;;16.50;11.47;;;;;;;-3.90;100.00;99268.19;5054316;28;20031;-64
2023/01/18 07:06:20;;;;;;;16.03;11.63;;;;;;;-3.89;100.00;99275.03;5056321;28;20782;-65
2023/01/18 07:08:48;;;;;;;17.17;12.87;;;;;;;-3.86;100.00;99274.31;5053499;28;20017;-64
2023/01/18 07:11:13;;;;;;;18.00;12.17;;;;;;;-3.86;100.00;99280.28;5055547;28;20357;-64
2023/01/18 07:13:39;;;;;;;19.17;12.50;;;;;;;-3.87;100.00;99286.09;5048220;28;20025;-64
2023/01/18 07:16:06;;;;;;;16.73;11.87;;;;;;;-3.81;100.00;99282.25;5047529;28;20029;-64
2023/01/18 07:18:31;;;;;;;16.63;11.83;;;;;;;-3.81;100.00;99282.25;5048203;28;20027;-65
2023/01/18 07:21:05;;;;;;;14.67;11.23;;;;;;;-3.79;100.00;99281.53;5058898;28;20460;-64
2023/01/18 07:23:34;;;;;;;13.30;10.83;;;;;;;-3.81;100.00;99288.16;5051590;28;20027;-65
2023/01/18 07:26:04;;;;;;;14.63;11.33;;;;;;;-3.81;100.00;99297.44;5046259;28;20375;-65
2023/01/18 07:28:30;;;;;;;17.00;11.68;;;;;;;-3.82;100.00;99296.53;5047644;28;20021;-64
2023/01/18 07:30:56;;;;;;;17.03;11.80;;;;;;;-3.83;100.00;99292.25;5047576;28;20021;-65
2023/01/18 07:33:21;;;;;;;16.07;11.13;;;;;;;-3.81;100.00;99297.44;5047700;28;20064;-65
2023/01/18 07:35:46;;;;;;;13.33;10.43;;;;;;;-3.81;100.00;99298.28;5058459;28;20389;-65
2023/01/18 07:38:12;;;;;;;17.23;11.73;;;;;;;-3.82;100.00;99300.72;5048745;28;20028;-65
2023/01/18 07:40:37;;;;;;;21.20;12.37;;;;;;;-3.81;100.00;99308.41;5048218;28;20021;-65
2023/01/18 07:43:02;;;;;;;16.43;11.77;;;;;;;-3.81;100.00;99317.69;5048167;28;20029;-65
2023/01/18 07:45:28;;;;;;;15.10;11.37;;;;;;;-3.79;100.00;99311.94;5046796;28;20525;-65
2023/01/18 07:47:53;;;;;;;18.77;11.73;;;;;;;-3.77;100.00;99309.50;5054583;28;20018;-65
2023/01/18 07:50:20;;;;;;;16.60;12.47;;;;;;;-3.75;100.00;99310.47;5058293;28;20023;-65
2023/01/18 07:52:46;;;;;;;15.40;11.50;;;;;;;-3.75;100.00;99313.00;5048749;28;20021;-65
2023/01/18 07:55:11;;;;;;;13.93;11.70;;;;;;;-3.75;100.00;99318.06;5048515;28;20031;-65
2023/01/18 07:57:46;;;;;;;15.80;11.40;;;;;;;-3.74;100.00;99328.28;5049063;28;20050;-65
2023/01/18 08:00:13;;;;;;;14.97;10.80;;;;;;;-3.72;100.00;99318.25;5049059;28;20040;-65
2023/01/18 08:02:39;;;;;;;15.63;11.00;;;;;;;-3.68;100.00;99319.34;5049671;28;20064;-65
2023/01/18 08:05:05;;;;;;;16.93;11.83;;;;;;;-3.66;100.00;99325.38;5048244;28;20688;-65
2023/01/18 08:07:32;;;;;;;15.57;11.67;;;;;;;-3.61;100.00;99329.09;5049964;28;20571;-65
2023/01/18 08:09:57;;;;;;;17.60;12.07;;;;;;;-3.60;100.00;99329.97;5048946;28;20028;-65
2023/01/18 08:12:22;;;;;;;17.10;11.93;;;;;;;-3.56;100.00;99334.47;5048463;28;20031;-65
2023/01/18 08:14:47;;;;;;;13.67;11.77;;;;;;;-3.58;100.00;99344.47;5049341;28;20020;-65
2023/01/18 08:17:13;;;;;;;15.57;11.23;;;;;;;-3.53;100.00;99349.88;5048790;28;20035;-65
2023/01/18 08:19:38;;;;;;;15.13;11.37;;;;;;;-3.54;100.00;99348.09;5048118;28;20488;-65
2023/01/18 08:22:03;;;;;;;14.13;10.57;;;;;;;-3.55;100.00;99346.34;5047961;28;20031;-65
2023/01/18 08:24:29;;;;;;;14.83;11.37;;;;;;;-3.54;100.00;99348.09;5048739;28;20025;-65
2023/01/18 08:26:54;;;;;;;14.77;10.80;;;;;;;-3.50;100.00;99345.88;5048421;28;20056;-65
2023/01/18 08:29:19;;;;;;;18.57;10.67;;;;;;;-3.47;100.00;99355.31;5047291;28;20099;-65
2023/01/18 08:31:44;;;;;;;15.87;11.00;;;;;;;-3.42;100.00;99353.94;5048319;28;20078;-65
2023/01/18 08:34:10;;;;;;;14.60;10.53;;;;;;;-3.41;100.00;99349.75;5049252;28;20461;-65
2023/01/18 08:36:35;;;;;;;14.73;10.50;;;;;;;-3.37;100.00;99349.19;5052873;28;20535;-65
2023/01/18 08:39:00;;;;;;;16.97;10.73;;;;;;;-3.32;100.00;99359.59;5055510;28;20036;-65
2023/01/18 08:41:27;;;;;;;14.53;10.23;;;;;;;-3.33;100.00;99363.81;5048733;28;20032;-65
2023/01/18 08:43:57;;;;;;;15.80;11.00;;;;;;;-3.34;100.00;99366.22;5048639;28;20040;-65
2023/01/18 08:46:23;;;;;;;15.57;11.80;;;;;;;-3.31;100.00;99371.53;5046482;28;20029;-65
2023/01/18 08:48:54;;;;;;;15.47;11.00;;;;;;;-3.28;100.00;99374.25;5047515;28;20469;-65
2023/01/18 08:51:21;;;;;;;16.38;9.85;;;;;;;-3.20;100.00;99383.19;5047081;28;20504;-64
2023/01/18 08:53:47;;;;;;;13.50;10.40;;;;;;;-3.14;100.00;99382.72;5048194;28;20021;-65
2023/01/18 08:56:12;;;;;;;14.53;10.07;;;;;;;-3.02;100.00;99386.03;5047422;28;20021;-65
2023/01/18 08:58:38;;;;;;;13.27;10.13;;;;;;;-2.84;100.00;99380.34;5047859;28;20043;-65
2023/01/18 09:01:07;;;;;;;13.27;10.10;;;;;;;-2.70;100.00;99381.22;5048283;28;20017;-65
2023/01/18 09:03:34;;;;;;;12.47;9.97;;;;;;;-2.56;100.00;99389.69;5047532;28;20070;-65
2023/01/18 09:06:00;;;;;;;13.23;9.87;;;;;;;-2.46;100.00;99396.19;5046971;28;20041;-65
2023/01/18 09:08:26;;;;;;;12.50;8.97;;;;;;;-2.39;100.00;99396.59;5048227;28;20029;-65
2023/01/18 09:10:51;;;;;;;13.10;9.63;;;;;;;-2.37;100.00;99397.53;5047662;28;20048;-65
2023/01/18 09:13:16;;;;;;;11.93;9.00;;;;;;;-2.37;100.00;99400.06;5047614;28;20082;-65
2023/01/18 09:15:42;;;;;;;13.67;9.83;;;;;;;-2.37;100.00;99407.69;5047093;28;20017;-65
2023/01/18 09:18:07;;;;;;;13.37;9.53;;;;;;;-2.38;100.00;99399.22;5047940;28;20191;-65
2023/01/18 09:20:34;;;;;;;12.87;8.77;;;;;;;-2.37;100.00;99408.56;5047583;28;20028;-65
2023/01/18 09:23:07;;;;;;;11.83;8.37;;;;;;;-2.34;100.00;99408.75;5046953;28;20024;-65
2023/01/18 09:25:35;;;;;;;12.40;8.73;;;;;;;-2.30;100.00;99414.88;5047216;28;20051;-64
2023/01/18 09:28:02;;;;;;;14.57;10.20;;;;;;;-2.25;100.00;99428.75;5047028;28;20099;-65
2023/01/18 09:30:27;;;;;;;13.10;8.37;;;;;;;-2.21;100.00;99423.06;5055112;28;20496;-65
2023/01/18 09:32:53;;;;;;;12.53;8.27;;;;;;;-2.15;100.00;99435.25;5052479;28;20029;-65
2023/01/18 09:35:18;;;;;;;10.57;8.60;;;;;;;-2.10;100.00;99433.88;5047576;28;20049;-65
2023/01/18 09:37:44;;;;;;;10.37;8.80;;;;;;;-2.03;100.00;99437.66;5047122;28;20029;-65
2023/01/18 09:40:18;;;;;;;10.60;8.57;;;;;;;-1.98;100.00;99438.81;5047727;28;20029;-63
2023/01/18 09:42:44;;;;;;;12.17;8.93;;;;;;;-1.91;100.00;99441.72;5048563;28;20033;-64
2023/01/18 09:45:32;;;;;;;9.97;8.80;;;;;;;-1.83;100.00;99440.50;5047293;28;20059;-64
2023/01/18 09:48:04;;;;;;;11.57;8.17;;;;;;;-1.75;100.00;99446.06;5046590;28;20013;-64
2023/01/18 09:50:37;;;;;;;11.37;8.90;;;;;;;-1.71;100.00;99448.00;5047472;28;20113;-64
2023/01/18 09:53:47;;;;;;;11.70;8.67;;;;;;;-1.66;100.00;99460.97;5047386;28;20024;-64
2023/01/18 09:56:43;;;;;;;13.23;9.07;;;;;;;-1.60;100.00;99456.25;5054528;28;20099;-64
2023/01/18 09:59:32;;;;;;;12.03;8.53;;;;;;;-1.51;100.00;99466.09;5046204;28;20045;-64
2023/01/18 10:02:07;;;;;;;9.90;8.20;;;;;;;-1.46;100.00;99465.53;5055893;28;20025;-64
2023/01/18 10:04:39;;;;;;;10.43;8.20;;;;;;;-1.38;100.00;99460.03;5047004;28;20528;-64
2023/01/18 10:07:11;;;;;;;11.27;8.10;;;;;;;-1.30;100.00;99458.84;5045339;28;20027;-64
2023/01/18 10:09:48;;;;;;;11.53;8.77;;;;;;;-1.20;100.00;99462.75;5047115;28;20548;-64
2023/01/18 10:12:28;;;;;;;11.37;8.60;;;;;;;-1.10;100.00;99464.19;5046988;28;20037;-64
2023/01/18 10:15:26;;;;;;;10.67;8.20;;;;;;;-0.98;100.00;99467.41;5046701;28;20096;-64
2023/01/18 10:17:55;;;;;;;9.23;8.13;;;;;;;-0.87;100.00;99472.22;5045810;28;20037;-64
2023/01/18 10:20:36;;;;;;;11.00;7.57;;;;;;;-0.76;100.00;99471.19;5046749;28;20043;-64
2023/01/18 10:23:33;;;;;;;13.20;8.63;;;;;;;-0.64;100.00;99473.50;5046647;28;20094;-64
2023/01/18 10:26:07;;;;;;;8.10;7.30;;;;;;;-0.53;100.00;99479.19;5046402;28;20029;-64
2023/01/18 10:28:55;;;;;;;10.13;7.77;;;;;;;-0.41;100.00;99468.78;5047058;28;20035;-63
2023/01/18 10:31:48;;;;;;;9.67;7.33;;;;;;;-0.32;100.00;99470.97;5046298;28;20021;-63
2023/01/18 10:34:19;;;;;;;11.07;7.40;;;;;;;-0.21;100.00;99475.75;5045704;28;20053;-63
2023/01/18 10:36:52;;;;;;;9.38;6.55;;;;;;;-0.15;100.00;99469.34;5047239;28;20027;-63
2023/01/18 10:39:38;;;;;;;10.77;7.23;;;;;;;-0.08;100.00;99473.09;5046309;28;20469;-63
2023/01/18 10:42:16;;;;;;;9.17;7.03;;;;;;;-0.02;100.00;99477.63;5046010;28;20083;-63
2023/01/18 10:44:41;;;;;;;9.10;7.27;;;;;;;0.03;100.00;99482.97;5046087;28;20027;-63
2023/01/18 10:47:07;;;;;;;9.00;7.27;;;;;;;0.07;100.00;99477.25;5046965;28;20021;-63
2023/01/18 10:49:41;;;;;;;12.20;7.37;;;;;;;0.11;100.00;99486.78;5047400;28;20635;-64
2023/01/18 10:52:16;;;;;;;10.30;7.13;;;;;;;0.12;100.00;99473.25;5045706;28;20060;-64
2023/01/18 10:54:50;;;;;;;9.37;7.30;;;;;;;0.18;100.00;99481.19;5046669;28;20029;-64
2023/01/18 10:57:30;;;;;;;11.30;8.40;;;;;;;0.21;100.00;99483.94;5047425;28;20430;-64
2023/01/18 10:59:58;;;;;;;9.13;7.35;;;;;;;0.26;100.00;99478.19;5046052;28;20099;-63
2023/01/18 11:02:32;;;;;;;9.67;7.37;;;;;;;0.31;100.00;99476.75;5045535;28;20024;-64
2023/01/18 11:05:03;;;;;;;8.13;6.40;;;;;;;0.39;100.00;99484.78;5046953;28;20471;-64
2023/01/18 11:07:29;;;;;;;8.00;7.20;;;;;;;0.44;100.00;99483.34;5046209;28;20473;-64
2023/01/18 11:09:58;;;;;;;8.27;6.57;;;;;;;0.50;100.00;99490.44;5044714;28;20017;-64
2023/01/18 11:12:44;;;;;;;8.60;7.27;;;;;;;0.55;100.00;99481.34;5046879;28;20044;-63
2023/01/18 11:15:12;;;;;;;8.20;6.63;;;;;;;0.66;100.00;99490.44;5049909;28;20067;-64
2023/01/18 11:17:59;;;;;;;9.07;6.53;;;;;;;0.68;100.00;99491.41;5049575;28;20491;-64
2023/01/18 11:20:46;;;;;;;8.07;7.27;;;;;;;0.76;100.00;99496.84;5053412;28;20040;-63
2023/01/18 11:23:24;;;;;;;8.07;6.33;;;;;;;0.81;100.00;99499.66;5049561;28;20043;-63
2023/01/18 11:25:55;;;;;;;8.20;6.33;;;;;;;0.89;100.00;99495.81;5048905;28;20028;-63
2023/01/18 11:28:38;;;;;;;8.73;6.37;;;;;;;0.94;100.00;99491.81;5048543;28;20381;-63
2023/01/18 11:31:13;;;;;;;8.10;6.17;;;;;;;1.03;100.00;99491.38;5050432;28;20377;-63
2023/01/18 11:34:01;;;;;;;8.40;6.37;;;;;;;1.14;100.00;99481.69;5050161;28;20029;-63
2023/01/18 11:36:44;;;;;;;9.57;6.07;;;;;;;1.18;100.00;99481.06;5048471;28;20017;-63
2023/01/18 11:39:26;;;;;;;8.50;5.97;;;;;;;1.28;100.00;99476.34;5049551;28;20036;-63
2023/01/18 11:42:10;;;;;;;7.03;5.70;;;;;;;1.37;100.00;99471.69;5049942;28;20053;-63
2023/01/18 11:44:39;;;;;;;7.53;6.73;;;;;;;1.44;100.00;99475.41;5049645;28;20025;-64
2023/01/18 11:47:11;;;;;;;7.27;6.37;;;;;;;1.51;100.00;99476.59;5049965;28;20466;-64
2023/01/18 11:50:00;;;;;;;8.43;6.67;;;;;;;1.63;100.00;99479.72;5047167;28;20041;-64
2023/01/18 11:52:25;;;;;;;10.77;6.70;;;;;;;1.71;100.00;99482.59;5049495;28;20037;-63
2023/01/18 11:54:56;;;;;;;6.90;5.53;;;;;;;1.83;100.00;99481.44;5049434;28;20087;-64
2023/01/18 11:57:22;;;;;;;6.53;5.05;;;;;;;1.94;100.00;99487.03;5049938;28;20350;-64
2023/01/18 11:59:47;;;;;;;7.30;5.60;;;;;;;2.01;100.00;99486.50;5048446;28;20024;-63
2023/01/18 12:02:34;;;;;;;8.70;5.83;;;;;;;2.12;100.00;99485.28;5061446;28;20036;-64